sensor_id;sensor_type;location;lat;lon;timestamp;P1;durP1;ratioP1;P2;durP2;ratioP2
61291;SDS011;47165;42.664;23.368;2023-04-03T00:00:28;4.63;;;1.75;;
61291;SDS011;47165;42.664;23.368;2023-04-03T00:02:53;4.68;;;2.40;;
61291;SDS011;47165;42.664;23.368;2023-04-03T00:05:19;3.40;;;1.52;;
61291;SDS011;47165;42.664;23.368;2023-04-03T00:07:44;3.78;;;1.52;;
61291;SDS011;47165;42.664;23.368;2023-04-03T00:10:10;5.38;;;2.00;;
61291;SDS011;47165;42.664;23.368;2023-04-03T00:12:35;2.42;;;1.58;;
61291;SDS011;47165;42.664;23.368;2023-04-03T00:15:01;4.45;;;2.05;;
61291;SDS011;47165;42.664;23.368;2023-04-03T00:17:26;4.72;;;1.85;;
61291;SDS011;47165;42.664;23.368;2023-04-03T00:19:52;3.47;;;1.48;;
61291;SDS011;47165;42.664;23.368;2023-04-03T00:22:17;5.68;;;2.00;;
61291;SDS011;47165;42.664;23.368;2023-04-03T00:24:42;4.55;;;1.83;;
61291;SDS011;47165;42.664;23.368;2023-04-03T00:27:08;1.85;;;1.38;;
61291;SDS011;47165;42.664;23.368;2023-04-03T00:29:33;3.95;;;1.98;;
61291;SDS011;47165;42.664;23.368;2023-04-03T00:31:59;2.05;;;1.15;;
61291;SDS011;47165;42.664;23.368;2023-04-03T00:34:25;2.42;;;1.45;;
61291;SDS011;47165;42.664;23.368;2023-04-03T00:36:50;2.63;;;1.65;;
61291;SDS011;47165;42.664;23.368;2023-04-03T00:39:16;3.85;;;1.80;;
61291;SDS011;47165;42.664;23.368;2023-04-03T00:41:41;2.45;;;1.65;;
61291;SDS011;47165;42.664;23.368;2023-04-03T00:44:18;1.67;;;1.20;;
61291;SDS011;47165;42.664;23.368;2023-04-03T00:46:48;2.60;;;1.08;;
61291;SDS011;47165;42.664;23.368;2023-04-03T00:49:13;1.92;;;1.48;;
61291;SDS011;47165;42.664;23.368;2023-04-03T00:51:39;1.77;;;1.20;;
61291;SDS011;47165;42.664;23.368;2023-04-03T00:54:05;4.00;;;1.45;;
61291;SDS011;47165;42.664;23.368;2023-04-03T00:56:33;1.67;;;1.23;;
61291;SDS011;47165;42.664;23.368;2023-04-03T00:59:02;2.33;;;0.95;;
61291;SDS011;47165;42.664;23.368;2023-04-03T01:01:31;2.92;;;1.08;;
61291;SDS011;47165;42.664;23.368;2023-04-03T01:03:58;1.92;;;1.40;;
61291;SDS011;47165;42.664;23.368;2023-04-03T01:06:29;1.23;;;1.05;;
61291;SDS011;47165;42.664;23.368;2023-04-03T01:08:57;3.92;;;1.10;;
61291;SDS011;47165;42.664;23.368;2023-04-03T01:11:24;1.13;;;1.02;;
61291;SDS011;47165;42.664;23.368;2023-04-03T01:13:51;4.05;;;1.35;;
61291;SDS011;47165;42.664;23.368;2023-04-03T01:16:16;2.70;;;1.55;;
61291;SDS011;47165;42.664;23.368;2023-04-03T01:18:42;3.42;;;1.42;;
61291;SDS011;47165;42.664;23.368;2023-04-03T01:26:30;1.27;;;1.00;;
61291;SDS011;47165;42.664;23.368;2023-04-03T01:28:58;2.50;;;1.27;;
61291;SDS011;47165;42.664;23.368;2023-04-03T01:31:25;2.83;;;1.40;;
61291;SDS011;47165;42.664;23.368;2023-04-03T01:33:56;3.85;;;1.15;;
61291;SDS011;47165;42.664;23.368;2023-04-03T01:36:23;3.25;;;1.23;;
61291;SDS011;47165;42.664;23.368;2023-04-03T01:38:51;2.63;;;1.40;;
61291;SDS011;47165;42.664;23.368;2023-04-03T01:41:18;2.40;;;1.25;;
61291;SDS011;47165;42.664;23.368;2023-04-03T01:43:45;2.58;;;1.45;;
61291;SDS011;47165;42.664;23.368;2023-04-03T01:46:11;7.18;;;1.83;;
61291;SDS011;47165;42.664;23.368;2023-04-03T01:48:36;2.08;;;1.05;;
61291;SDS011;47165;42.664;23.368;2023-04-03T01:51:02;2.88;;;1.15;;
61291;SDS011;47165;42.664;23.368;2023-04-03T01:53:27;1.50;;;1.05;;
61291;SDS011;47165;42.664;23.368;2023-04-03T01:55:53;2.70;;;1.48;;
61291;SDS011;47165;42.664;23.368;2023-04-03T01:58:18;1.38;;;1.20;;
61291;SDS011;47165;42.664;23.368;2023-04-03T02:00:44;3.88;;;1.80;;
61291;SDS011;47165;42.664;23.368;2023-04-03T02:03:09;3.13;;;1.65;;
61291;SDS011;47165;42.664;23.368;2023-04-03T02:05:35;2.17;;;1.30;;
61291;SDS011;47165;42.664;23.368;2023-04-03T02:08:00;2.47;;;1.55;;
61291;SDS011;47165;42.664;23.368;2023-04-03T02:10:26;4.05;;;1.73;;
61291;SDS011;47165;42.664;23.368;2023-04-03T02:12:51;4.20;;;1.73;;
61291;SDS011;47165;42.664;23.368;2023-04-03T02:15:17;4.75;;;1.77;;
61291;SDS011;47165;42.664;23.368;2023-04-03T02:17:43;3.22;;;1.73;;
61291;SDS011;47165;42.664;23.368;2023-04-03T02:20:08;2.85;;;1.75;;
61291;SDS011;47165;42.664;23.368;2023-04-03T02:22:34;4.55;;;1.52;;
61291;SDS011;47165;42.664;23.368;2023-04-03T02:25:00;4.50;;;2.05;;
61291;SDS011;47165;42.664;23.368;2023-04-03T02:27:25;5.53;;;2.22;;
61291;SDS011;47165;42.664;23.368;2023-04-03T02:29:52;2.15;;;1.60;;
61291;SDS011;47165;42.664;23.368;2023-04-03T02:32:17;4.25;;;1.65;;
61291;SDS011;47165;42.664;23.368;2023-04-03T02:34:42;3.30;;;1.70;;
61291;SDS011;47165;42.664;23.368;2023-04-03T02:37:08;5.72;;;1.70;;
61291;SDS011;47165;42.664;23.368;2023-04-03T02:39:34;3.60;;;1.52;;
61291;SDS011;47165;42.664;23.368;2023-04-03T02:41:59;3.55;;;1.95;;
61291;SDS011;47165;42.664;23.368;2023-04-03T02:44:25;4.05;;;1.80;;
61291;SDS011;47165;42.664;23.368;2023-04-03T02:46:50;3.88;;;1.55;;
61291;SDS011;47165;42.664;23.368;2023-04-03T02:49:16;2.78;;;1.15;;
61291;SDS011;47165;42.664;23.368;2023-04-03T02:51:41;2.63;;;1.42;;
61291;SDS011;47165;42.664;23.368;2023-04-03T02:54:07;2.72;;;1.38;;
61291;SDS011;47165;42.664;23.368;2023-04-03T02:56:32;3.80;;;1.42;;
61291;SDS011;47165;42.664;23.368;2023-04-03T02:58:58;3.60;;;1.60;;
61291;SDS011;47165;42.664;23.368;2023-04-03T03:01:23;4.18;;;1.63;;
61291;SDS011;47165;42.664;23.368;2023-04-03T03:03:49;2.97;;;1.83;;
61291;SDS011;47165;42.664;23.368;2023-04-03T03:06:15;4.97;;;2.22;;
61291;SDS011;47165;42.664;23.368;2023-04-03T03:08:42;2.25;;;1.30;;
61291;SDS011;47165;42.664;23.368;2023-04-03T03:11:08;4.82;;;1.23;;
61291;SDS011;47165;42.664;23.368;2023-04-03T03:13:34;2.28;;;1.25;;
61291;SDS011;47165;42.664;23.368;2023-04-03T03:16:00;2.90;;;1.52;;
61291;SDS011;47165;42.664;23.368;2023-04-03T03:18:25;2.33;;;1.15;;
61291;SDS011;47165;42.664;23.368;2023-04-03T03:20:52;1.70;;;1.10;;
61291;SDS011;47165;42.664;23.368;2023-04-03T03:23:19;4.60;;;1.27;;
61291;SDS011;47165;42.664;23.368;2023-04-03T03:25:44;1.73;;;0.90;;
61291;SDS011;47165;42.664;23.368;2023-04-03T03:28:10;1.00;;;0.90;;
61291;SDS011;47165;42.664;23.368;2023-04-03T03:30:36;1.27;;;1.00;;
61291;SDS011;47165;42.664;23.368;2023-04-03T03:33:02;2.05;;;0.73;;
61291;SDS011;47165;42.664;23.368;2023-04-03T03:35:27;0.93;;;0.90;;
61291;SDS011;47165;42.664;23.368;2023-04-03T03:37:53;1.63;;;1.15;;
61291;SDS011;47165;42.664;23.368;2023-04-03T03:40:18;2.10;;;1.15;;
61291;SDS011;47165;42.664;23.368;2023-04-03T03:42:43;2.05;;;1.20;;
61291;SDS011;47165;42.664;23.368;2023-04-03T03:45:09;1.52;;;1.25;;
61291;SDS011;47165;42.664;23.368;2023-04-03T03:47:35;2.22;;;1.30;;
61291;SDS011;47165;42.664;23.368;2023-04-03T03:50:00;2.83;;;1.15;;
61291;SDS011;47165;42.664;23.368;2023-04-03T03:52:26;2.90;;;1.30;;
61291;SDS011;47165;42.664;23.368;2023-04-03T03:54:52;1.17;;;1.00;;
61291;SDS011;47165;42.664;23.368;2023-04-03T03:57:17;2.40;;;1.55;;
61291;SDS011;47165;42.664;23.368;2023-04-03T03:59:43;3.75;;;1.00;;
61291;SDS011;47165;42.664;23.368;2023-04-03T04:02:09;2.15;;;1.27;;
61291;SDS011;47165;42.664;23.368;2023-04-03T04:04:36;2.55;;;1.20;;
61291;SDS011;47165;42.664;23.368;2023-04-03T04:07:02;1.88;;;1.08;;
61291;SDS011;47165;42.664;23.368;2023-04-03T04:09:27;1.52;;;0.95;;
61291;SDS011;47165;42.664;23.368;2023-04-03T04:11:53;1.20;;;1.10;;
61291;SDS011;47165;42.664;23.368;2023-04-03T04:14:19;1.85;;;1.20;;
61291;SDS011;47165;42.664;23.368;2023-04-03T04:16:45;2.65;;;1.60;;
61291;SDS011;47165;42.664;23.368;2023-04-03T04:19:11;2.20;;;1.23;;
61291;SDS011;47165;42.664;23.368;2023-04-03T04:21:38;3.95;;;1.70;;
61291;SDS011;47165;42.664;23.368;2023-04-03T04:24:04;3.17;;;1.65;;
61291;SDS011;47165;42.664;23.368;2023-04-03T04:26:30;3.42;;;1.67;;
61291;SDS011;47165;42.664;23.368;2023-04-03T04:28:55;2.35;;;1.60;;
61291;SDS011;47165;42.664;23.368;2023-04-03T04:31:21;4.40;;;2.35;;
61291;SDS011;47165;42.664;23.368;2023-04-03T04:33:46;3.45;;;2.10;;
61291;SDS011;47165;42.664;23.368;2023-04-03T04:36:11;3.80;;;2.35;;
61291;SDS011;47165;42.664;23.368;2023-04-03T04:38:37;4.47;;;2.13;;
61291;SDS011;47165;42.664;23.368;2023-04-03T04:41:03;4.20;;;2.38;;
61291;SDS011;47165;42.664;23.368;2023-04-03T04:43:28;2.63;;;2.13;;
61291;SDS011;47165;42.664;23.368;2023-04-03T04:46:04;6.22;;;2.05;;
61291;SDS011;47165;42.664;23.368;2023-04-03T04:48:34;5.25;;;2.40;;
61291;SDS011;47165;42.664;23.368;2023-04-03T04:51:00;5.07;;;2.03;;
61291;SDS011;47165;42.664;23.368;2023-04-03T04:53:26;3.35;;;1.70;;
61291;SDS011;47165;42.664;23.368;2023-04-03T04:55:52;3.20;;;1.70;;
61291;SDS011;47165;42.664;23.368;2023-04-03T04:58:18;5.70;;;2.35;;
61291;SDS011;47165;42.664;23.368;2023-04-03T05:00:43;6.88;;;2.13;;
61291;SDS011;47165;42.664;23.368;2023-04-03T05:03:09;13.75;;;4.85;;
61291;SDS011;47165;42.664;23.368;2023-04-03T05:05:35;9.70;;;3.35;;
61291;SDS011;47165;42.664;23.368;2023-04-03T05:08:01;4.65;;;2.70;;
61291;SDS011;47165;42.664;23.368;2023-04-03T05:10:27;7.78;;;3.35;;
61291;SDS011;47165;42.664;23.368;2023-04-03T05:12:53;7.57;;;2.95;;
61291;SDS011;47165;42.664;23.368;2023-04-03T05:15:19;5.60;;;3.28;;
61291;SDS011;47165;42.664;23.368;2023-04-03T05:17:44;6.80;;;3.33;;
61291;SDS011;47165;42.664;23.368;2023-04-03T05:20:10;5.45;;;2.67;;
61291;SDS011;47165;42.664;23.368;2023-04-03T05:22:36;3.88;;;2.17;;
61291;SDS011;47165;42.664;23.368;2023-04-03T05:25:01;4.65;;;2.45;;
61291;SDS011;47165;42.664;23.368;2023-04-03T05:27:26;6.47;;;2.63;;
61291;SDS011;47165;42.664;23.368;2023-04-03T05:29:53;7.55;;;2.40;;
61291;SDS011;47165;42.664;23.368;2023-04-03T05:32:19;3.17;;;2.03;;
61291;SDS011;47165;42.664;23.368;2023-04-03T05:34:45;3.60;;;1.70;;
61291;SDS011;47165;42.664;23.368;2023-04-03T05:37:11;3.80;;;1.63;;
61291;SDS011;47165;42.664;23.368;2023-04-03T05:39:36;2.95;;;1.65;;
61291;SDS011;47165;42.664;23.368;2023-04-03T05:42:03;2.72;;;1.27;;
61291;SDS011;47165;42.664;23.368;2023-04-03T05:44:29;2.35;;;1.88;;
61291;SDS011;47165;42.664;23.368;2023-04-03T05:46:54;2.88;;;1.88;;
61291;SDS011;47165;42.664;23.368;2023-04-03T05:49:20;2.38;;;2.00;;
61291;SDS011;47165;42.664;23.368;2023-04-03T05:51:45;3.35;;;1.98;;
61291;SDS011;47165;42.664;23.368;2023-04-03T05:56:44;2.80;;;1.73;;
61291;SDS011;47165;42.664;23.368;2023-04-03T05:59:10;5.10;;;1.90;;
61291;SDS011;47165;42.664;23.368;2023-04-03T06:01:36;2.65;;;1.95;;
61291;SDS011;47165;42.664;23.368;2023-04-03T06:04:02;2.38;;;1.88;;
61291;SDS011;47165;42.664;23.368;2023-04-03T06:06:42;2.88;;;1.95;;
61291;SDS011;47165;42.664;23.368;2023-04-03T06:09:10;4.70;;;3.03;;
61291;SDS011;47165;42.664;23.368;2023-04-03T06:11:35;5.75;;;2.50;;
61291;SDS011;47165;42.664;23.368;2023-04-03T06:14:01;10.45;;;2.42;;
61291;SDS011;47165;42.664;23.368;2023-04-03T06:16:26;7.47;;;2.67;;
61291;SDS011;47165;42.664;23.368;2023-04-03T06:18:52;3.20;;;2.05;;
61291;SDS011;47165;42.664;23.368;2023-04-03T06:21:17;3.25;;;2.45;;
61291;SDS011;47165;42.664;23.368;2023-04-03T06:23:42;5.57;;;2.83;;
61291;SDS011;47165;42.664;23.368;2023-04-03T06:26:08;7.03;;;3.83;;
61291;SDS011;47165;42.664;23.368;2023-04-03T06:28:33;5.97;;;3.80;;
61291;SDS011;47165;42.664;23.368;2023-04-03T06:30:59;10.10;;;4.82;;
61291;SDS011;47165;42.664;23.368;2023-04-03T06:33:24;8.23;;;5.18;;
61291;SDS011;47165;42.664;23.368;2023-04-03T06:35:54;11.90;;;5.40;;
61291;SDS011;47165;42.664;23.368;2023-04-03T06:38:21;9.45;;;5.18;;
61291;SDS011;47165;42.664;23.368;2023-04-03T06:40:47;8.68;;;5.00;;
61291;SDS011;47165;42.664;23.368;2023-04-03T06:43:12;10.98;;;5.43;;
61291;SDS011;47165;42.664;23.368;2023-04-03T06:45:38;15.00;;;6.47;;
61291;SDS011;47165;42.664;23.368;2023-04-03T06:48:03;16.90;;;7.55;;
61291;SDS011;47165;42.664;23.368;2023-04-03T06:50:28;11.18;;;7.55;;
61291;SDS011;47165;42.664;23.368;2023-04-03T06:52:54;16.75;;;9.50;;
61291;SDS011;47165;42.664;23.368;2023-04-03T06:55:19;16.00;;;8.30;;
61291;SDS011;47165;42.664;23.368;2023-04-03T06:57:45;13.90;;;8.18;;
61291;SDS011;47165;42.664;23.368;2023-04-03T07:00:11;16.05;;;8.68;;
61291;SDS011;47165;42.664;23.368;2023-04-03T07:02:37;15.18;;;6.85;;
61291;SDS011;47165;42.664;23.368;2023-04-03T07:05:02;13.45;;;7.13;;
61291;SDS011;47165;42.664;23.368;2023-04-03T07:07:28;10.73;;;6.45;;
61291;SDS011;47165;42.664;23.368;2023-04-03T07:09:53;9.63;;;5.35;;
61291;SDS011;47165;42.664;23.368;2023-04-03T07:12:19;11.93;;;6.47;;
61291;SDS011;47165;42.664;23.368;2023-04-03T07:14:44;15.98;;;6.60;;
61291;SDS011;47165;42.664;23.368;2023-04-03T07:17:10;11.07;;;6.00;;
61291;SDS011;47165;42.664;23.368;2023-04-03T07:19:35;13.52;;;6.05;;
61291;SDS011;47165;42.664;23.368;2023-04-03T07:22:01;15.80;;;6.93;;
61291;SDS011;47165;42.664;23.368;2023-04-03T07:24:27;8.98;;;5.53;;
61291;SDS011;47165;42.664;23.368;2023-04-03T07:26:52;8.38;;;4.78;;
61291;SDS011;47165;42.664;23.368;2023-04-03T07:29:18;11.55;;;5.13;;
61291;SDS011;47165;42.664;23.368;2023-04-03T07:31:45;8.65;;;4.30;;
61291;SDS011;47165;42.664;23.368;2023-04-03T07:34:10;8.77;;;4.20;;
61291;SDS011;47165;42.664;23.368;2023-04-03T07:36:36;10.00;;;4.63;;
61291;SDS011;47165;42.664;23.368;2023-04-03T07:39:02;7.80;;;4.43;;
61291;SDS011;47165;42.664;23.368;2023-04-03T07:41:28;11.38;;;4.65;;
61291;SDS011;47165;42.664;23.368;2023-04-03T07:43:54;12.68;;;6.50;;
61291;SDS011;47165;42.664;23.368;2023-04-03T07:46:21;12.90;;;5.82;;
61291;SDS011;47165;42.664;23.368;2023-04-03T07:48:47;7.18;;;4.85;;
61291;SDS011;47165;42.664;23.368;2023-04-03T07:51:12;13.45;;;5.43;;
61291;SDS011;47165;42.664;23.368;2023-04-03T07:53:38;7.15;;;4.70;;
61291;SDS011;47165;42.664;23.368;2023-04-03T07:56:03;9.95;;;6.00;;
61291;SDS011;47165;42.664;23.368;2023-04-03T07:58:29;11.55;;;5.88;;
61291;SDS011;47165;42.664;23.368;2023-04-03T08:00:55;9.23;;;5.97;;
61291;SDS011;47165;42.664;23.368;2023-04-03T08:03:21;13.02;;;6.15;;
61291;SDS011;47165;42.664;23.368;2023-04-03T08:05:47;15.63;;;6.90;;
61291;SDS011;47165;42.664;23.368;2023-04-03T08:08:15;11.10;;;6.50;;
61291;SDS011;47165;42.664;23.368;2023-04-03T08:10:43;11.27;;;6.53;;
61291;SDS011;47165;42.664;23.368;2023-04-03T08:13:08;10.45;;;5.50;;
61291;SDS011;47165;42.664;23.368;2023-04-03T08:15:34;10.93;;;6.80;;
61291;SDS011;47165;42.664;23.368;2023-04-03T08:18:01;12.07;;;5.95;;
61291;SDS011;47165;42.664;23.368;2023-04-03T08:20:27;11.30;;;6.07;;
61291;SDS011;47165;42.664;23.368;2023-04-03T08:22:53;10.82;;;5.50;;
61291;SDS011;47165;42.664;23.368;2023-04-03T08:25:19;9.27;;;6.20;;
61291;SDS011;47165;42.664;23.368;2023-04-03T08:27:44;10.52;;;4.68;;
61291;SDS011;47165;42.664;23.368;2023-04-03T08:30:10;11.60;;;5.03;;
61291;SDS011;47165;42.664;23.368;2023-04-03T08:32:36;10.55;;;4.75;;
61291;SDS011;47165;42.664;23.368;2023-04-03T08:35:03;11.00;;;4.97;;
61291;SDS011;47165;42.664;23.368;2023-04-03T08:37:29;8.15;;;4.80;;
61291;SDS011;47165;42.664;23.368;2023-04-03T08:39:55;7.88;;;4.88;;
61291;SDS011;47165;42.664;23.368;2023-04-03T08:45:37;5.63;;;4.37;;
61291;SDS011;47165;42.664;23.368;2023-04-03T08:50:40;9.38;;;5.22;;
61291;SDS011;47165;42.664;23.368;2023-04-03T08:53:15;11.55;;;5.18;;
61291;SDS011;47165;42.664;23.368;2023-04-03T08:55:46;7.60;;;4.55;;
61291;SDS011;47165;42.664;23.368;2023-04-03T08:58:24;7.75;;;4.03;;
61291;SDS011;47165;42.664;23.368;2023-04-03T09:01:03;6.00;;;4.50;;
61291;SDS011;47165;42.664;23.368;2023-04-03T09:03:31;6.90;;;4.25;;
61291;SDS011;47165;42.664;23.368;2023-04-03T09:08:35;11.73;;;7.32;;
61291;SDS011;47165;42.664;23.368;2023-04-03T09:11:11;8.55;;;5.40;;
61291;SDS011;47165;42.664;23.368;2023-04-03T09:14:01;8.32;;;5.22;;
61291;SDS011;47165;42.664;23.368;2023-04-03T09:16:39;8.40;;;4.45;;
61291;SDS011;47165;42.664;23.368;2023-04-03T09:21:53;8.32;;;4.90;;
61291;SDS011;47165;42.664;23.368;2023-04-03T09:24:22;9.30;;;4.75;;
61291;SDS011;47165;42.664;23.368;2023-04-03T09:26:53;6.00;;;3.85;;
61291;SDS011;47165;42.664;23.368;2023-04-03T09:29:24;6.43;;;3.70;;
61291;SDS011;47165;42.664;23.368;2023-04-03T09:31:57;7.80;;;3.53;;
61291;SDS011;47165;42.664;23.368;2023-04-03T09:34:26;8.02;;;3.65;;
61291;SDS011;47165;42.664;23.368;2023-04-03T09:36:56;6.97;;;3.95;;
61291;SDS011;47165;42.664;23.368;2023-04-03T09:39:30;6.30;;;3.28;;
61291;SDS011;47165;42.664;23.368;2023-04-03T09:42:02;6.97;;;3.85;;
61291;SDS011;47165;42.664;23.368;2023-04-03T09:44:36;6.40;;;3.53;;
61291;SDS011;47165;42.664;23.368;2023-04-03T09:47:24;6.70;;;3.60;;
61291;SDS011;47165;42.664;23.368;2023-04-03T09:49:50;8.23;;;3.65;;
61291;SDS011;47165;42.664;23.368;2023-04-03T09:52:25;8.52;;;4.57;;
61291;SDS011;47165;42.664;23.368;2023-04-03T09:54:51;5.28;;;3.80;;
61291;SDS011;47165;42.664;23.368;2023-04-03T09:57:16;15.68;;;5.72;;
61291;SDS011;47165;42.664;23.368;2023-04-03T09:59:45;5.25;;;4.22;;
61291;SDS011;47165;42.664;23.368;2023-04-03T10:02:39;7.00;;;3.90;;
61291;SDS011;47165;42.664;23.368;2023-04-03T10:05:25;7.40;;;3.95;;
61291;SDS011;47165;42.664;23.368;2023-04-03T10:10:39;7.03;;;3.53;;
61291;SDS011;47165;42.664;23.368;2023-04-03T10:15:42;6.13;;;3.53;;
61291;SDS011;47165;42.664;23.368;2023-04-03T10:20:54;3.65;;;2.53;;
61291;SDS011;47165;42.664;23.368;2023-04-03T10:23:31;6.55;;;2.42;;
61291;SDS011;47165;42.664;23.368;2023-04-03T10:28:52;2.35;;;2.10;;
61291;SDS011;47165;42.664;23.368;2023-04-03T10:36:47;2.67;;;2.15;;
61291;SDS011;47165;42.664;23.368;2023-04-03T10:39:26;3.50;;;1.85;;
61291;SDS011;47165;42.664;23.368;2023-04-03T10:42:04;2.83;;;1.90;;
61291;SDS011;47165;42.664;23.368;2023-04-03T10:58:53;2.28;;;1.30;;
61291;SDS011;47165;42.664;23.368;2023-04-03T11:01:24;4.40;;;1.55;;
61291;SDS011;47165;42.664;23.368;2023-04-03T11:04:04;1.88;;;1.20;;
61291;SDS011;47165;42.664;23.368;2023-04-03T11:06:44;1.60;;;1.25;;
61291;SDS011;47165;42.664;23.368;2023-04-03T11:09:29;1.75;;;1.20;;
61291;SDS011;47165;42.664;23.368;2023-04-03T11:12:06;3.95;;;1.17;;
61291;SDS011;47165;42.664;23.368;2023-04-03T11:14:38;1.73;;;1.08;;
61291;SDS011;47165;42.664;23.368;2023-04-03T11:17:09;3.33;;;1.00;;
61291;SDS011;47165;42.664;23.368;2023-04-03T11:19:45;1.23;;;0.90;;
61291;SDS011;47165;42.664;23.368;2023-04-03T11:22:29;4.20;;;1.33;;
61291;SDS011;47165;42.664;23.368;2023-04-03T11:33:51;2.95;;;1.75;;
61291;SDS011;47165;42.664;23.368;2023-04-03T11:36:32;0.85;;;0.80;;
61291;SDS011;47165;42.664;23.368;2023-04-03T11:41:53;1.35;;;1.20;;
61291;SDS011;47165;42.664;23.368;2023-04-03T11:44:28;1.55;;;1.15;;
61291;SDS011;47165;42.664;23.368;2023-04-03T11:47:04;1.73;;;1.02;;
61291;SDS011;47165;42.664;23.368;2023-04-03T12:00:56;0.95;;;0.90;;
61291;SDS011;47165;42.664;23.368;2023-04-03T12:03:30;1.35;;;0.80;;
61291;SDS011;47165;42.664;23.368;2023-04-03T12:16:04;2.55;;;1.02;;
61291;SDS011;47165;42.664;23.368;2023-04-03T12:18:44;1.88;;;1.20;;
61291;SDS011;47165;42.664;23.368;2023-04-03T12:21:22;1.02;;;0.90;;
61291;SDS011;47165;42.664;23.368;2023-04-03T12:26:27;1.27;;;1.15;;
61291;SDS011;47165;42.664;23.368;2023-04-03T12:28:56;2.30;;;1.40;;
61291;SDS011;47165;42.664;23.368;2023-04-03T12:31:25;4.28;;;0.95;;
61291;SDS011;47165;42.664;23.368;2023-04-03T12:34:12;1.17;;;0.73;;
61291;SDS011;47165;42.664;23.368;2023-04-03T12:36:57;1.00;;;0.80;;
61291;SDS011;47165;42.664;23.368;2023-04-03T12:45:25;1.10;;;0.73;;
61291;SDS011;47165;42.664;23.368;2023-04-03T12:47:54;0.88;;;0.85;;
61291;SDS011;47165;42.664;23.368;2023-04-03T12:50:22;1.30;;;0.95;;
61291;SDS011;47165;42.664;23.368;2023-04-03T12:53:12;1.88;;;1.15;;
61291;SDS011;47165;42.664;23.368;2023-04-03T12:55:42;1.92;;;1.30;;
61291;SDS011;47165;42.664;23.368;2023-04-03T12:58:20;3.75;;;2.17;;
61291;SDS011;47165;42.664;23.368;2023-04-03T13:00:58;4.65;;;2.10;;
61291;SDS011;47165;42.664;23.368;2023-04-03T13:03:26;5.25;;;2.53;;
61291;SDS011;47165;42.664;23.368;2023-04-03T13:05:53;6.28;;;2.72;;
61291;SDS011;47165;42.664;23.368;2023-04-03T13:08:29;3.90;;;2.08;;
61291;SDS011;47165;42.664;23.368;2023-04-03T13:11:00;4.93;;;2.45;;
61291;SDS011;47165;42.664;23.368;2023-04-03T13:13:28;4.85;;;2.00;;
61291;SDS011;47165;42.664;23.368;2023-04-03T13:15:54;4.03;;;1.98;;
61291;SDS011;47165;42.664;23.368;2023-04-03T13:18:21;4.22;;;2.70;;
61291;SDS011;47165;42.664;23.368;2023-04-03T13:21:03;4.70;;;2.28;;
61291;SDS011;47165;42.664;23.368;2023-04-03T13:23:40;3.22;;;1.70;;
61291;SDS011;47165;42.664;23.368;2023-04-03T13:26:09;3.17;;;1.73;;
61291;SDS011;47165;42.664;23.368;2023-04-03T13:28:36;4.32;;;2.05;;
61291;SDS011;47165;42.664;23.368;2023-04-03T13:33:38;1.92;;;1.60;;
61291;SDS011;47165;42.664;23.368;2023-04-03T13:36:22;2.92;;;2.00;;
61291;SDS011;47165;42.664;23.368;2023-04-03T13:39:05;3.00;;;1.90;;
61291;SDS011;47165;42.664;23.368;2023-04-03T13:41:41;1.85;;;1.52;;
61291;SDS011;47165;42.664;23.368;2023-04-03T13:46:47;2.05;;;1.77;;
61291;SDS011;47165;42.664;23.368;2023-04-03T13:49:17;3.22;;;1.77;;
61291;SDS011;47165;42.664;23.368;2023-04-03T13:51:46;4.70;;;1.85;;
61291;SDS011;47165;42.664;23.368;2023-04-03T13:54:20;2.63;;;1.63;;
61291;SDS011;47165;42.664;23.368;2023-04-03T13:56:55;4.00;;;1.70;;
61291;SDS011;47165;42.664;23.368;2023-04-03T13:59:32;2.53;;;1.55;;
61291;SDS011;47165;42.664;23.368;2023-04-03T14:04:29;1.90;;;1.63;;
61291;SDS011;47165;42.664;23.368;2023-04-03T14:06:57;4.70;;;1.77;;
61291;SDS011;47165;42.664;23.368;2023-04-03T14:09:24;3.55;;;1.83;;
61291;SDS011;47165;42.664;23.368;2023-04-03T14:11:53;5.88;;;1.42;;
61291;SDS011;47165;42.664;23.368;2023-04-03T14:14:31;2.80;;;1.60;;
61291;SDS011;47165;42.664;23.368;2023-04-03T14:17:00;2.40;;;1.15;;
61291;SDS011;47165;42.664;23.368;2023-04-03T14:19:34;1.27;;;1.08;;
61291;SDS011;47165;42.664;23.368;2023-04-03T14:22:01;4.05;;;1.90;;
61291;SDS011;47165;42.664;23.368;2023-04-03T14:24:37;2.75;;;1.45;;
61291;SDS011;47165;42.664;23.368;2023-04-03T14:27:05;1.80;;;1.27;;
61291;SDS011;47165;42.664;23.368;2023-04-03T14:29:40;2.47;;;1.38;;
61291;SDS011;47165;42.664;23.368;2023-04-03T14:32:06;2.53;;;1.50;;
61291;SDS011;47165;42.664;23.368;2023-04-03T14:34:31;3.50;;;1.05;;
61291;SDS011;47165;42.664;23.368;2023-04-03T14:36:57;1.08;;;0.98;;
61291;SDS011;47165;42.664;23.368;2023-04-03T14:39:22;1.48;;;1.20;;
61291;SDS011;47165;42.664;23.368;2023-04-03T14:41:48;1.48;;;1.20;;
61291;SDS011;47165;42.664;23.368;2023-04-03T14:44:13;2.90;;;1.40;;
61291;SDS011;47165;42.664;23.368;2023-04-03T14:46:40;2.17;;;1.38;;
61291;SDS011;47165;42.664;23.368;2023-04-03T14:49:14;2.22;;;1.17;;
61291;SDS011;47165;42.664;23.368;2023-04-03T14:51:43;1.25;;;0.93;;
61291;SDS011;47165;42.664;23.368;2023-04-03T14:54:16;1.95;;;0.98;;
61291;SDS011;47165;42.664;23.368;2023-04-03T14:56:43;4.35;;;1.25;;
61291;SDS011;47165;42.664;23.368;2023-04-03T14:59:09;1.90;;;1.17;;
61291;SDS011;47165;42.664;23.368;2023-04-03T15:01:37;1.13;;;1.02;;
61291;SDS011;47165;42.664;23.368;2023-04-03T15:04:16;1.10;;;0.95;;
61291;SDS011;47165;42.664;23.368;2023-04-03T15:06:44;1.80;;;0.85;;
61291;SDS011;47165;42.664;23.368;2023-04-03T15:09:21;1.73;;;1.25;;
61291;SDS011;47165;42.664;23.368;2023-04-03T15:11:49;1.77;;;1.15;;
61291;SDS011;47165;42.664;23.368;2023-04-03T15:14:15;1.27;;;0.73;;
61291;SDS011;47165;42.664;23.368;2023-04-03T15:16:41;1.02;;;0.93;;
61291;SDS011;47165;42.664;23.368;2023-04-03T15:19:07;2.15;;;1.20;;
61291;SDS011;47165;42.664;23.368;2023-04-03T15:21:32;1.65;;;1.13;;
61291;SDS011;47165;42.664;23.368;2023-04-03T15:23:57;1.25;;;0.85;;
61291;SDS011;47165;42.664;23.368;2023-04-03T15:26:23;2.45;;;1.05;;
61291;SDS011;47165;42.664;23.368;2023-04-03T15:28:49;1.60;;;1.10;;
61291;SDS011;47165;42.664;23.368;2023-04-03T15:31:15;1.60;;;0.98;;
61291;SDS011;47165;42.664;23.368;2023-04-03T15:33:40;2.00;;;1.27;;
61291;SDS011;47165;42.664;23.368;2023-04-03T15:36:06;3.50;;;0.82;;
61291;SDS011;47165;42.664;23.368;2023-04-03T15:38:32;1.15;;;0.90;;
61291;SDS011;47165;42.664;23.368;2023-04-03T15:40:57;2.22;;;1.13;;
61291;SDS011;47165;42.664;23.368;2023-04-03T15:43:23;1.38;;;0.80;;
61291;SDS011;47165;42.664;23.368;2023-04-03T15:45:49;3.42;;;1.17;;
61291;SDS011;47165;42.664;23.368;2023-04-03T15:48:15;3.22;;;1.02;;
61291;SDS011;47165;42.664;23.368;2023-04-03T15:50:41;1.88;;;1.38;;
61291;SDS011;47165;42.664;23.368;2023-04-03T15:53:07;1.88;;;1.23;;
61291;SDS011;47165;42.664;23.368;2023-04-03T15:55:34;0.90;;;0.82;;
61291;SDS011;47165;42.664;23.368;2023-04-03T15:58:01;1.65;;;0.90;;
61291;SDS011;47165;42.664;23.368;2023-04-03T16:00:27;2.20;;;1.00;;
61291;SDS011;47165;42.664;23.368;2023-04-03T16:03:27;2.72;;;1.50;;
61291;SDS011;47165;42.664;23.368;2023-04-03T16:05:47;1.52;;;1.13;;
61291;SDS011;47165;42.664;23.368;2023-04-03T16:08:12;1.77;;;1.23;;
61291;SDS011;47165;42.664;23.368;2023-04-03T16:10:39;1.90;;;1.10;;
61291;SDS011;47165;42.664;23.368;2023-04-03T16:13:05;0.88;;;0.88;;
61291;SDS011;47165;42.664;23.368;2023-04-03T16:15:31;1.33;;;1.10;;
61291;SDS011;47165;42.664;23.368;2023-04-03T16:17:59;1.75;;;1.48;;